createdAt,value
2018-05-31T00:01:05.824Z,7.23
2018-05-31T00:03:34.088Z,7.00
2018-05-31T00:06:02.382Z,6.70
2018-05-31T00:08:30.640Z,6.70
2018-05-31T00:10:58.901Z,6.70
2018-05-31T00:13:27.328Z,6.70
2018-05-31T00:15:56.349Z,6.13
2018-05-31T00:18:24.701Z,6.63
2018-05-31T00:20:54.129Z,5.77
2018-05-31T00:23:22.381Z,5.90
2018-05-31T00:25:51.401Z,5.83
2018-05-31T00:28:19.684Z,5.70
2018-05-31T00:30:47.929Z,5.70
2018-05-31T00:33:16.957Z,5.80
2018-05-31T00:35:45.228Z,6.20
2018-05-31T00:38:13.473Z,6.20
2018-05-31T00:40:41.720Z,6.00
2018-05-31T00:43:10.393Z,5.93
2018-05-31T00:45:39.021Z,6.60
2018-05-31T00:48:08.045Z,5.83
2018-05-31T00:50:36.748Z,6.13
2018-05-31T00:53:04.999Z,6.70
2018-05-31T00:55:45.022Z,5.77
2018-05-31T00:58:13.288Z,6.70
2018-05-31T01:00:41.535Z,5.57
2018-05-31T01:03:10.317Z,6.10
2018-05-31T01:05:38.650Z,5.43
2018-05-31T01:08:07.668Z,5.90
2018-05-31T01:10:35.940Z,6.80
2018-05-31T01:13:04.196Z,6.10
2018-05-31T01:15:32.448Z,6.93
2018-05-31T01:18:00.732Z,7.30
2018-05-31T01:20:29.199Z,6.30
2018-05-31T01:22:57.444Z,5.70
2018-05-31T01:25:26.036Z,5.77
2018-05-31T01:27:54.285Z,6.50
2018-05-31T01:30:22.580Z,6.83
2018-05-31T01:32:50.856Z,6.37
2018-05-31T01:35:19.111Z,6.70
2018-05-31T01:37:47.352Z,6.17
2018-05-31T01:40:16.401Z,6.70
2018-05-31T01:42:44.656Z,7.37
2018-05-31T01:45:12.899Z,6.13
2018-05-31T01:47:41.757Z,7.93
2018-05-31T01:50:10.038Z,6.97
2018-05-31T01:52:38.292Z,7.80
2018-05-31T01:55:06.568Z,6.73
2018-05-31T01:57:34.929Z,7.13
2018-05-31T02:00:03.188Z,7.00
2018-05-31T02:02:31.469Z,6.73
2018-05-31T02:04:59.721Z,7.97
2018-05-31T02:07:27.969Z,7.40
2018-05-31T02:09:56.559Z,7.13
2018-05-31T02:12:24.808Z,6.80
2018-05-31T02:14:53.066Z,6.40
2018-05-31T02:17:22.260Z,7.70
2018-05-31T02:19:50.537Z,7.40
2018-05-31T02:22:18.813Z,8.03
2018-05-31T02:24:47.877Z,6.90
2018-05-31T02:27:16.892Z,7.80
2018-05-31T02:29:45.144Z,8.20
2018-05-31T02:32:13.521Z,7.40
2018-05-31T02:34:41.780Z,7.43
2018-05-31T02:37:10.032Z,7.40
2018-05-31T02:39:38.313Z,7.03
2018-05-31T02:42:06.576Z,7.80
2018-05-31T02:44:34.828Z,7.00
2018-05-31T02:47:03.112Z,7.37
2018-05-31T02:49:32.244Z,8.07
2018-05-31T02:52:00.504Z,7.80
2018-05-31T02:54:28.913Z,7.63
2018-05-31T02:56:57.163Z,7.10
2018-05-31T02:59:25.412Z,7.70
2018-05-31T03:01:53.688Z,8.03
2018-05-31T03:04:22.708Z,7.40
2018-05-31T03:06:50.969Z,7.37
2018-05-31T03:09:19.254Z,9.80
2018-05-31T03:11:47.528Z,7.90
2018-05-31T03:14:15.785Z,8.40
2018-05-31T03:16:44.641Z,7.90
2018-05-31T03:19:12.954Z,8.33
2018-05-31T03:21:41.969Z,7.67
2018-05-31T03:24:10.245Z,8.00
2018-05-31T03:26:38.508Z,7.63
2018-05-31T03:29:06.765Z,7.30
2018-05-31T03:31:35.046Z,7.30
2018-05-31T03:34:03.297Z,8.10
2018-05-31T03:36:31.547Z,7.83
2018-05-31T03:39:00.350Z,7.50
2018-05-31T03:41:28.600Z,7.90
2018-05-31T03:43:56.851Z,8.53
2018-05-31T03:46:25.137Z,7.77
2018-05-31T03:48:54.157Z,9.33
2018-05-31T03:51:22.555Z,8.60
2018-05-31T03:53:50.829Z,7.80
2018-05-31T03:56:19.265Z,9.00
2018-05-31T03:58:48.287Z,8.50
2018-05-31T04:01:16.988Z,8.70
2018-05-31T04:03:45.247Z,8.30
2018-05-31T04:06:13.500Z,8.20
2018-05-31T04:08:42.550Z,8.20
2018-05-31T04:11:10.804Z,7.83
2018-05-31T04:13:39.049Z,8.00
2018-05-31T04:16:07.321Z,9.33
2018-05-31T04:18:35.564Z,8.60
2018-05-31T04:21:03.830Z,8.30
2018-05-31T04:23:32.415Z,9.17
2018-05-31T04:26:00.666Z,9.13
2018-05-31T04:28:28.932Z,9.67
2018-05-31T04:30:57.216Z,8.13
2018-05-31T04:33:25.568Z,8.77
2018-05-31T04:35:54.589Z,8.47
2018-05-31T04:38:22.864Z,8.83
2018-05-31T04:40:51.117Z,9.53
2018-05-31T04:43:19.392Z,8.40
2018-05-31T04:45:48.749Z,9.60
2018-05-31T04:48:16.996Z,9.20
2018-05-31T04:50:45.256Z,8.90
2018-05-31T04:53:13.965Z,9.27
2018-05-31T04:55:42.256Z,8.20
2018-05-31T04:58:10.461Z,8.50
2018-05-31T05:00:38.738Z,9.70
2018-05-31T05:03:06.994Z,9.67
2018-05-31T05:05:35.246Z,10.47
2018-05-31T05:08:03.773Z,10.50
2018-05-31T05:10:32.033Z,9.57
2018-05-31T05:13:00.286Z,9.77
2018-05-31T05:15:28.653Z,9.70
2018-05-31T05:17:56.905Z,9.97
2018-05-31T05:20:25.156Z,9.30
2018-05-31T05:22:54.209Z,10.47
2018-05-31T05:25:22.473Z,10.20
2018-05-31T05:27:50.729Z,10.27
2018-05-31T05:30:19.196Z,9.80
2018-05-31T05:32:48.224Z,9.90
2018-05-31T05:35:16.479Z,10.53
2018-05-31T05:37:44.764Z,10.17
2018-05-31T05:40:13.008Z,9.60
2018-05-31T05:42:41.260Z,9.80
2018-05-31T05:45:09.540Z,10.10
2018-05-31T05:47:37.796Z,9.80
2018-05-31T05:50:06.080Z,9.47
2018-05-31T05:52:34.655Z,9.10
2018-05-31T05:55:03.308Z,9.83
2018-05-31T05:57:32.336Z,10.80
2018-05-31T06:00:00.626Z,10.83
2018-05-31T06:02:28.884Z,12.10
2018-05-31T06:04:57.160Z,11.00
2018-05-31T06:07:25.445Z,10.70
2018-05-31T06:09:53.716Z,10.90
2018-05-31T06:12:21.968Z,10.93
2018-05-31T06:14:50.704Z,11.27
2018-05-31T06:17:19.001Z,10.33
2018-05-31T06:19:47.274Z,11.10
2018-05-31T06:22:15.628Z,11.30
2018-05-31T06:24:43.885Z,10.80
2018-05-31T06:27:12.157Z,10.90
2018-05-31T06:29:40.436Z,10.77
2018-05-31T06:32:08.712Z,11.13
2018-05-31T06:34:36.975Z,11.67
2018-05-31T06:37:05.539Z,11.40
2018-05-31T06:39:33.739Z,10.90
2018-05-31T06:42:01.993Z,10.80
2018-05-31T06:44:31.032Z,10.60
2018-05-31T06:46:59.288Z,11.37
2018-05-31T06:49:27.540Z,12.37
2018-05-31T06:51:55.823Z,12.23
2018-05-31T06:54:24.929Z,10.40
2018-05-31T06:56:53.628Z,10.63
2018-05-31T06:59:22.437Z,11.10
2018-05-31T07:01:50.691Z,12.37
2018-05-31T07:04:18.949Z,10.70
2018-05-31T07:06:47.255Z,11.10
2018-05-31T07:09:15.504Z,10.70
2018-05-31T07:11:43.760Z,10.67
2018-05-31T07:14:12.048Z,10.30
2018-05-31T07:16:41.067Z,11.23
2018-05-31T07:19:09.320Z,11.77
2018-05-31T07:21:38.085Z,11.23
2018-05-31T07:24:06.344Z,10.40
2018-05-31T07:26:34.605Z,11.20
2018-05-31T07:29:02.909Z,11.80
2018-05-31T07:31:31.152Z,10.80
2018-05-31T07:33:59.408Z,11.37
2018-05-31T07:36:27.692Z,9.03
2018-05-31T07:38:55.949Z,10.93
2018-05-31T07:41:24.212Z,11.57
2018-05-31T07:43:53.560Z,11.73
2018-05-31T07:46:21.912Z,11.00
2018-05-31T07:48:50.172Z,11.23
2018-05-31T07:51:18.504Z,10.70
2018-05-31T07:53:46.724Z,10.50
2018-05-31T07:56:15.749Z,11.20
2018-05-31T07:58:44.358Z,11.80
2018-05-31T08:01:12.608Z,11.20
2018-05-31T08:03:40.869Z,10.63
2018-05-31T08:06:10.097Z,11.67
2018-05-31T08:08:38.361Z,10.77
2018-05-31T08:11:06.617Z,12.80
2018-05-31T08:13:34.916Z,11.20
2018-05-31T08:16:03.168Z,11.23
2018-05-31T08:18:32.189Z,10.60
2018-05-31T08:21:00.477Z,10.80
2018-05-31T08:23:28.733Z,10.47
2018-05-31T08:25:56.993Z,10.57
2018-05-31T08:28:25.618Z,9.60
2018-05-31T08:30:53.874Z,10.70
2018-05-31T08:33:22.137Z,10.53
2018-05-31T08:35:50.420Z,10.83
2018-05-31T08:38:19.725Z,9.90
2018-05-31T08:40:47.977Z,10.67
2018-05-31T08:43:16.252Z,9.63
2018-05-31T08:45:45.276Z,9.57
2018-05-31T08:48:13.569Z,10.23
2018-05-31T08:50:42.132Z,9.00
2018-05-31T08:53:10.384Z,10.83
2018-05-31T08:55:39.405Z,9.83
2018-05-31T08:58:07.716Z,10.40
2018-05-31T09:00:36.349Z,10.43
2018-05-31T09:03:05.196Z,9.33
2018-05-31T09:05:33.491Z,10.30
2018-05-31T09:08:01.753Z,10.03
2018-05-31T09:10:30.015Z,10.27
2018-05-31T09:12:58.604Z,11.00
2018-05-31T09:15:26.868Z,12.37
2018-05-31T09:17:55.116Z,10.67
2018-05-31T09:20:23.391Z,11.00
2018-05-31T09:22:51.655Z,11.17
2018-05-31T09:25:19.912Z,10.47
2018-05-31T09:27:48.208Z,9.73
2018-05-31T09:30:17.236Z,10.90
2018-05-31T09:32:45.746Z,11.63
2018-05-31T09:35:14.732Z,10.20
2018-05-31T09:37:42.975Z,11.50
2018-05-31T09:40:11.229Z,10.13
2018-05-31T09:42:39.504Z,9.67
2018-05-31T09:45:08.519Z,8.80
2018-05-31T09:47:36.777Z,11.07
2018-05-31T09:50:05.853Z,9.50
2018-05-31T09:52:34.100Z,10.03
2018-05-31T09:55:02.350Z,9.40
2018-05-31T09:57:30.948Z,9.87
2018-05-31T09:59:59.207Z,9.80
2018-05-31T10:02:27.977Z,10.67
2018-05-31T10:04:57.030Z,10.20
2018-05-31T10:07:25.270Z,10.00
2018-05-31T10:09:53.545Z,10.67
2018-05-31T10:12:21.813Z,9.83
2018-05-31T10:14:50.069Z,8.90
2018-05-31T10:17:18.321Z,9.40
2018-05-31T10:19:47.689Z,9.50
2018-05-31T10:22:15.929Z,8.60
2018-05-31T10:24:44.196Z,9.67
2018-05-31T10:27:12.456Z,8.43
2018-05-31T10:29:40.712Z,9.70
2018-05-31T10:32:08.964Z,8.57
2018-05-31T10:34:37.260Z,8.10
2018-05-31T10:37:05.504Z,8.17
2018-05-31T10:39:33.761Z,8.33
2018-05-31T10:42:03.004Z,8.77
2018-05-31T10:44:31.256Z,8.67
2018-05-31T10:46:59.509Z,8.83
2018-05-31T10:49:28.546Z,7.70
2018-05-31T10:51:56.788Z,7.57
2018-05-31T10:54:25.028Z,7.03
2018-05-31T10:56:53.309Z,9.20
2018-05-31T10:59:21.592Z,7.70
2018-05-31T11:01:49.980Z,7.10
2018-05-31T11:04:18.718Z,7.00
2018-05-31T11:06:46.968Z,6.50
2018-05-31T11:09:17.436Z,5.90
2018-05-31T11:11:46.310Z,6.67
2018-05-31T11:14:14.831Z,5.90
2018-05-31T11:16:43.305Z,5.50
2018-05-31T11:19:11.709Z,5.07
2018-05-31T11:21:41.928Z,4.80
2018-05-31T11:24:10.173Z,5.47
2018-05-31T11:26:38.677Z,5.10
2018-05-31T11:29:06.926Z,5.20
2018-05-31T11:31:35.177Z,4.70
2018-05-31T11:34:03.548Z,4.77
2018-05-31T11:36:31.868Z,4.87
2018-05-31T11:39:00.120Z,5.20
2018-05-31T11:41:28.396Z,4.80
2018-05-31T11:43:56.652Z,4.60
2018-05-31T11:46:24.904Z,4.50
2018-05-31T11:48:53.545Z,4.63
2018-05-31T11:51:21.793Z,4.53
2018-05-31T11:53:50.218Z,4.00
2018-05-31T11:56:18.506Z,3.90
2018-05-31T11:58:46.755Z,4.20
2018-05-31T12:01:15.048Z,4.40
2018-05-31T12:03:43.384Z,3.43
2018-05-31T12:06:11.587Z,4.30
2018-05-31T12:08:39.887Z,3.80
2018-05-31T12:11:08.213Z,4.40
2018-05-31T12:13:36.461Z,3.97
2018-05-31T12:16:04.769Z,3.50
2018-05-31T12:18:33.280Z,3.40
2018-05-31T12:21:01.511Z,3.90
2018-05-31T12:23:30.520Z,3.37
2018-05-31T12:25:58.917Z,3.50
2018-05-31T12:28:27.164Z,3.30
2018-05-31T12:30:55.412Z,3.10
2018-05-31T12:33:23.744Z,3.20
2018-05-31T12:35:52.034Z,3.47
2018-05-31T12:38:20.263Z,3.30
2018-05-31T12:40:48.712Z,2.73
2018-05-31T12:43:17.172Z,3.40
2018-05-31T12:45:45.422Z,3.80
2018-05-31T12:48:13.725Z,3.07
2018-05-31T12:50:41.940Z,3.50
2018-05-31T12:53:10.390Z,3.23
2018-05-31T12:55:38.931Z,3.00
2018-05-31T12:58:07.177Z,3.73
2018-05-31T13:00:36.192Z,3.20
2018-05-31T13:03:04.853Z,3.53
2018-05-31T13:05:34.175Z,3.03
2018-05-31T13:08:03.523Z,3.03
2018-05-31T13:10:31.809Z,3.40
2018-05-31T13:13:00.187Z,3.37
2018-05-31T13:15:28.436Z,3.30
2018-05-31T13:17:57.958Z,3.40
2018-05-31T13:20:26.250Z,3.23
2018-05-31T13:22:54.625Z,4.60
2018-05-31T13:25:23.033Z,3.00
2018-05-31T13:27:52.088Z,3.20
2018-05-31T13:30:20.312Z,3.27
2018-05-31T13:32:48.802Z,3.50
2018-05-31T13:35:17.808Z,2.80
2018-05-31T13:37:46.057Z,3.23
2018-05-31T13:40:14.892Z,3.50
2018-05-31T13:42:43.148Z,3.80
2018-05-31T13:45:11.577Z,3.20
2018-05-31T13:47:39.849Z,3.90
2018-05-31T13:50:08.219Z,4.27
2018-05-31T13:52:36.465Z,3.90
2018-05-31T13:55:04.841Z,3.63
2018-05-31T13:57:33.093Z,4.30
2018-05-31T14:00:02.491Z,3.33
2018-05-31T14:02:31.849Z,3.50
2018-05-31T14:05:00.096Z,4.00
2018-05-31T14:07:28.353Z,3.90
2018-05-31T14:09:56.628Z,4.10
2018-05-31T14:12:25.649Z,3.97
2018-05-31T14:14:53.893Z,3.87
2018-05-31T14:17:22.377Z,4.07
2018-05-31T14:19:51.396Z,3.70
2018-05-31T14:22:19.652Z,3.70
2018-05-31T14:24:48.101Z,3.73
2018-05-31T14:27:16.528Z,4.50
2018-05-31T14:29:44.783Z,4.10
2018-05-31T14:32:13.064Z,3.30
2018-05-31T14:34:41.369Z,3.67
2018-05-31T14:37:09.604Z,3.70
2018-05-31T14:39:38.255Z,3.60
2018-05-31T14:42:06.498Z,3.10
2018-05-31T14:44:34.736Z,2.90
2018-05-31T14:47:03.576Z,3.73
2018-05-31T14:49:31.821Z,2.47
2018-05-31T14:52:00.275Z,3.70
2018-05-31T14:54:28.546Z,3.10
2018-05-31T14:56:56.795Z,4.20
2018-05-31T14:59:25.042Z,3.13
2018-05-31T15:01:53.320Z,3.33
2018-05-31T15:04:21.581Z,3.30
2018-05-31T15:06:51.769Z,3.33
2018-05-31T15:09:20.092Z,2.63
2018-05-31T15:11:48.333Z,2.87
2018-05-31T15:14:16.586Z,3.50
2018-05-31T15:16:44.923Z,2.83
2018-05-31T15:19:13.119Z,2.80
2018-05-31T15:21:41.424Z,2.80
2018-05-31T15:24:09.696Z,3.70
2018-05-31T15:26:37.934Z,3.53
2018-05-31T15:29:06.172Z,3.43
2018-05-31T15:31:34.488Z,3.63
2018-05-31T15:34:02.899Z,3.33
2018-05-31T15:36:31.136Z,4.00
2018-05-31T15:38:59.400Z,3.53
2018-05-31T15:41:27.690Z,4.33
2018-05-31T15:43:55.919Z,5.10
2018-05-31T15:46:24.328Z,4.33
2018-05-31T15:48:53.342Z,5.00
2018-05-31T15:51:23.816Z,5.60
2018-05-31T15:53:52.592Z,5.90
2018-05-31T15:56:23.137Z,5.70
2018-05-31T15:58:51.428Z,5.60
2018-05-31T16:01:19.817Z,6.03
2018-05-31T16:03:50.154Z,5.77
2018-05-31T16:06:19.368Z,7.07
2018-05-31T16:08:48.061Z,8.50
2018-05-31T16:11:16.303Z,6.53
2018-05-31T16:13:44.769Z,6.17
2018-05-31T16:16:13.269Z,6.30
2018-05-31T16:18:41.652Z,8.07
2018-05-31T16:21:09.893Z,6.40
2018-05-31T16:23:38.174Z,6.40
2018-05-31T16:26:06.420Z,5.93
2018-05-31T16:28:35.682Z,5.63
2018-05-31T16:31:03.976Z,6.90
2018-05-31T16:33:32.292Z,5.90
2018-05-31T16:36:00.540Z,6.63
2018-05-31T16:38:28.888Z,6.00
2018-05-31T16:40:57.927Z,5.80
2018-05-31T16:43:26.241Z,6.57
2018-05-31T16:45:54.657Z,7.20
2018-05-31T16:48:23.657Z,6.67
2018-05-31T16:50:52.296Z,6.50
2018-05-31T16:53:20.699Z,7.50
2018-05-31T16:55:50.894Z,6.20
2018-05-31T16:58:21.184Z,6.73
2018-05-31T17:00:49.512Z,7.03
2018-05-31T17:03:17.888Z,8.07
2018-05-31T17:05:46.264Z,6.80
2018-05-31T17:08:16.481Z,7.17
2018-05-31T17:10:47.024Z,6.83
2018-05-31T17:13:17.225Z,8.40
2018-05-31T17:15:45.613Z,7.80
2018-05-31T17:18:14.081Z,7.10
2018-05-31T17:20:42.347Z,7.60
2018-05-31T17:23:10.811Z,7.90
2018-05-31T17:25:39.820Z,9.13
2018-05-31T17:28:10.298Z,12.93
2018-05-31T17:30:40.828Z,9.57
2018-05-31T17:33:11.093Z,8.13
2018-05-31T17:35:39.391Z,7.80
2018-05-31T17:38:08.778Z,6.63
2018-05-31T17:40:37.230Z,8.27
2018-05-31T17:43:06.793Z,6.97
2018-05-31T17:45:35.085Z,6.43
2018-05-31T17:48:04.393Z,7.47
2018-05-31T17:50:33.423Z,8.00
2018-05-31T17:53:02.112Z,7.60
2018-05-31T17:55:31.379Z,7.67
2018-05-31T17:58:00.636Z,7.00
2018-05-31T18:00:29.103Z,8.47
2018-05-31T18:02:58.364Z,7.10
2018-05-31T18:05:26.941Z,7.50
2018-05-31T18:07:55.733Z,6.00
2018-05-31T18:10:24.066Z,6.70
2018-05-31T18:12:52.453Z,7.30
2018-05-31T18:15:22.745Z,7.40
2018-05-31T18:17:50.988Z,6.87
2018-05-31T18:20:19.454Z,6.80
2018-05-31T18:22:50.037Z,6.87
2018-05-31T18:25:18.351Z,8.10
2018-05-31T18:27:46.606Z,6.67
2018-05-31T18:30:14.957Z,7.23
2018-05-31T18:32:43.210Z,8.90
2018-05-31T18:35:12.224Z,14.83
2018-05-31T18:37:40.573Z,10.03
2018-05-31T18:40:11.990Z,7.83
2018-05-31T18:42:43.760Z,8.13
2018-05-31T18:45:15.198Z,8.70
2018-05-31T18:47:43.577Z,8.30
2018-05-31T18:50:11.977Z,7.00
2018-05-31T18:52:42.483Z,7.80
2018-05-31T18:55:11.782Z,7.00
2018-05-31T18:57:40.305Z,7.67
2018-05-31T19:00:09.464Z,8.03
2018-05-31T19:02:38.764Z,8.60
2018-05-31T19:05:07.394Z,8.00
2018-05-31T19:07:35.884Z,9.47
2018-05-31T19:10:07.333Z,7.93
2018-05-31T19:12:42.384Z,8.90
2018-05-31T19:15:10.792Z,9.00
2018-05-31T19:17:40.101Z,8.37
2018-05-31T19:20:08.852Z,8.10
2018-05-31T19:22:37.250Z,8.87
2018-05-31T19:25:11.172Z,8.70
2018-05-31T19:27:40.613Z,8.57
2018-05-31T19:30:14.750Z,9.27
2018-05-31T19:32:43.011Z,8.83
2018-05-31T19:35:18.196Z,8.80
2018-05-31T19:37:46.796Z,7.93
2018-05-31T19:40:15.336Z,7.57
2018-05-31T19:42:49.336Z,8.30
2018-05-31T19:45:17.752Z,7.60
2018-05-31T19:47:47.065Z,9.30
2018-05-31T19:50:17.377Z,7.83
2018-05-31T19:52:52.311Z,8.40
2018-05-31T19:55:20.630Z,8.10
2018-05-31T19:57:54.632Z,7.87
2018-05-31T20:00:28.852Z,6.50
2018-05-31T20:03:02.800Z,6.33
2018-05-31T20:05:31.074Z,6.93
2018-05-31T20:07:59.318Z,6.60
2018-05-31T20:10:28.340Z,7.13
2018-05-31T20:12:58.013Z,6.43
2018-05-31T20:15:27.184Z,6.53
2018-05-31T20:17:55.567Z,6.50
2018-05-31T20:20:23.841Z,6.47
2018-05-31T20:22:52.326Z,7.00
2018-05-31T20:25:20.573Z,6.00
2018-05-31T20:27:48.841Z,6.10
2018-05-31T20:30:17.092Z,6.90
2018-05-31T20:32:45.337Z,6.10
2018-05-31T20:35:13.681Z,5.53
2018-05-31T20:37:42.288Z,6.27
2018-05-31T20:40:10.668Z,5.90
2018-05-31T20:42:39.101Z,5.17
2018-05-31T20:45:08.101Z,5.80
2018-05-31T20:47:36.432Z,6.27
2018-05-31T20:50:04.893Z,5.93
2018-05-31T20:52:33.156Z,5.83
2018-05-31T20:55:01.580Z,5.80
2018-05-31T20:57:30.944Z,5.20
2018-05-31T20:59:59.290Z,5.70
2018-05-31T21:02:27.502Z,5.50
2018-05-31T21:04:55.756Z,6.60
2018-05-31T21:07:24.016Z,5.77
2018-05-31T21:09:52.453Z,6.07
2018-05-31T21:12:21.859Z,6.57
2018-05-31T21:14:50.160Z,6.40
2018-05-31T21:17:19.181Z,6.20
2018-05-31T21:19:48.200Z,5.13
2018-05-31T21:22:16.445Z,5.90
2018-05-31T21:24:44.885Z,6.00
2018-05-31T21:27:13.278Z,5.30
2018-05-31T21:29:42.296Z,5.60
2018-05-31T21:32:10.677Z,5.60
2018-05-31T21:34:39.054Z,5.67
2018-05-31T21:37:07.386Z,6.37
2018-05-31T21:39:35.784Z,5.90
2018-05-31T21:42:05.153Z,5.60
2018-05-31T21:44:33.453Z,5.00
2018-05-31T21:47:01.702Z,4.90
2018-05-31T21:49:30.009Z,5.63
2018-05-31T21:51:58.255Z,5.33
2018-05-31T21:54:30.651Z,5.50
2018-05-31T21:56:59.054Z,5.60
2018-05-31T21:59:29.264Z,5.13
2018-05-31T22:01:57.512Z,5.43
2018-05-31T22:04:25.972Z,5.70
2018-05-31T22:06:54.216Z,5.50
2018-05-31T22:09:23.236Z,4.70
2018-05-31T22:11:51.637Z,5.63
2018-05-31T22:14:20.752Z,6.20
2018-05-31T22:16:49.004Z,4.73
2018-05-31T22:19:19.383Z,5.20
2018-05-31T22:21:48.388Z,5.10
2018-05-31T22:24:16.735Z,5.80
2018-05-31T22:26:45.189Z,5.90
2018-05-31T22:29:15.624Z,5.53
2018-05-31T22:31:44.008Z,5.90
2018-05-31T22:34:12.313Z,5.30
2018-05-31T22:36:41.638Z,6.07
2018-05-31T22:39:09.849Z,5.90
2018-05-31T22:41:38.157Z,6.30
2018-05-31T22:44:08.399Z,7.67
2018-05-31T22:46:37.419Z,6.33
2018-05-31T22:49:05.825Z,6.00
2018-05-31T22:51:34.788Z,6.13
2018-05-31T22:54:03.085Z,6.00
2018-05-31T22:56:31.308Z,5.50
2018-05-31T22:59:00.324Z,6.67
2018-05-31T23:01:29.800Z,6.13
2018-05-31T23:03:58.844Z,6.23
2018-05-31T23:06:27.156Z,6.00
2018-05-31T23:08:55.544Z,6.60
2018-05-31T23:11:23.976Z,6.80
2018-05-31T23:13:52.301Z,6.13
2018-05-31T23:16:20.664Z,6.80
2018-05-31T23:18:48.940Z,7.30
2018-05-31T23:21:17.315Z,6.20
2018-05-31T23:23:45.565Z,7.17
2018-05-31T23:26:13.839Z,11.23
2018-05-31T23:28:42.081Z,6.17
2018-05-31T23:31:11.101Z,7.70
2018-05-31T23:33:39.480Z,6.50
2018-05-31T23:36:07.834Z,6.83
2018-05-31T23:38:36.089Z,6.60
2018-05-31T23:41:04.364Z,6.53
2018-05-31T23:43:32.617Z,6.30
2018-05-31T23:46:01.833Z,6.27
2018-05-31T23:48:30.092Z,6.80
2018-05-31T23:50:58.332Z,6.47
2018-05-31T23:53:26.662Z,7.00
2018-05-31T23:55:55.113Z,5.50
2018-05-31T23:58:23.416Z,6.40
